OPLA/LHE METAR and TAF weather

Enter ICAO airport designator
Station Type Date Time Source
OPLA METAR 2019/06/17 06:55 UTC NOAA

OPLA 170655Z 25008KT 5000 HZ FEW040 39/20 Q0999 BECMG 6000 RMK A29.52


Station Type Date Time Source
OPLA Decoded METAR 2019/06/17 06:55 UTC NOAA

Lahore Airport, Pakistan (OPLA) 31-31N 074-24E 217M
Jun 17, 2019 - 02:55 AM EDT / 2019.06.17 0655 UTC
Wind: from the WSW (250 degrees) at 9 MPH (8 KT):0
Visibility: 3 mile(s):0
Sky conditions: mostly clear
Weather: haze
Temperature: 102 F (39 C)
Heat index: 108.0 F (42.2 C):1
Dew Point: 68 F (20 C)
Relative Humidity: 33%
Pressure (altimeter): 29.50 in. Hg (0999 hPa)
ob: OPLA 170655Z 25008KT 5000 HZ FEW040 39/20 Q0999 BECMG 6000 RMK A29.52
cycle: 7

Station Type Date Time Source
OPLA TAF 2019/06/17 06:03 UTC NOAA

TAF TAF OPLA 170345Z 1706/1812 25005KT 5000 HZ FEW040 SCT100 TX42/1810Z TN28/1800Z
TEMPO 1708/1712 34015G35KT 0800 DSTSRA FEW030CB SCT040 BKN100
TEMPO 1720/1800 34015G30KT 1500 TSRA FEW030CB SCT040 BKN100

Example: see airport list